Scott, Wisconsin
Current Conditions -  °F | °C
As of 7:16 PM on Sunday 23 Nov 2014 (Local Time) from KGRB Reporting Station
Light Rain Light Rain  
Wind Chill: 40°   Ceiling: 500
Heat Index: 45°   Visibility: 3mi
Dew Point: 44°   Wind: 9mph
Humidity: 97%   Direction: 140°SE
Pressure: 29.35"   Gusts: NA
Location:  44.4814°N, 88.0196°W
Report Text: KGRB 240116Z 14008KT 3SM -RA BR OVC005 07/07 A2935 RMK AO2 P0001 T00720067
Loading
Personal Weather Stations






























Interactive Weather Map New forecast layout! Learn more

10-Day Weather Forecast

Advertisements
Track Severe Weather on mobile